Flight Track Log - Related Links

Times and Time Zones

All times are in EDT time to prevent confusion due to time zone crossing. See the JBU917 flight status page for this flight to view local times or setup timezone preferences in your user account.

Time Position Orientation Groundspeed Altitude Reporting Facility
EDT Latitude Longitude Course Direction KTS MPH feet Rate Location/Type
Mon 06:05:35 AM 42.3500 -71.0167 213° Southwest 158 182 800  Level KA90
Mon 06:06:53 AM 42.3000 -70.9500 135° Southeast 242 278 2,800 2,087 Climbing KA90
Mon 06:07:53 AM 42.3333 -70.8500 66° East 285 328 5,600 2,727 Climbing KA90
Mon 06:08:00 AM 41.8007 -70.7551 206° Southwest  Level FlightAware Approximate
Mon 06:08:54 AM 42.3167 -70.7333 101° East 306 352 8,300  Level KA90
Mon 06:09:00 AM 41.7545 -70.7919 213° Southwest  Level FlightAware Approximate
Mon 06:09:54 AM 42.2500 -70.6667 143° Southeast 299 344 10,900  Level KA90
Mon 06:10:00 AM 41.7095 -70.8314 213° Southwest  Level FlightAware Approximate
Mon 06:11:05 AM 42.1567 -70.6253 162° South 328 377 12,700  Level Boston Center
Mon 06:12:05 AM 42.0653 -70.6531 193° South 328 377 15,300 2,300 Climbing Boston Center
Mon 06:13:05 AM 41.9744 -70.6975 200° South 333 383 17,300 2,200 Climbing Boston Center
Mon 06:14:05 AM 41.8922 -70.7836 218° Southwest 333 383 19,700 1,950 Climbing Boston Center
Mon 06:15:05 AM 41.8225 -70.8661 221° Southwest 353 406 21,200 1,150 Climbing Boston Center
Mon 06:16:05 AM 41.7403 -70.9544 219° Southwest 374 430 22,000 400 Climbing Boston Center
Mon 06:17:05 AM 41.6622 -71.0453 221° Southwest 379 436 22,000  Level Boston Center
Mon 06:18:05 AM 41.5800 -71.1358 219° Southwest 379 436 22,000  Level Boston Center
Mon 06:19:05 AM 41.5019 -71.2206 219° Southwest 379 436 22,000  Level Boston Center
Mon 06:20:05 AM 41.4214 -71.3106 220° Southwest 379 436 22,000  Level Boston Center
Mon 06:21:05 AM 41.3411 -71.3950 218° Southwest 374 430 22,000  Level Boston Center
Mon 06:22:05 AM 41.2625 -71.4847 221° Southwest 374 430 22,000  Level Boston Center
Mon 06:23:05 AM 41.1758 -71.5742 218° Southwest 374 430 22,000  Level Boston Center
Mon 06:24:05 AM 41.1497 -71.7014 255° West 347 399 22,000  Level Boston Center
Mon 06:25:05 AM 41.1339 -71.8367 261° West 352 405 22,000  Level Boston Center
Mon 06:26:17 AM 41.1178 -71.9772 261° West 360 414 22,000 -591 Level Boston Center
Mon 06:27:17 AM 41.0953 -72.1289 259° West 372 428 20,700 -1,600 Descending Boston Center
Mon 06:28:17 AM 41.0664 -72.2500 252° West 365 420 18,800 -1,850 Descending Boston Center
Mon 06:29:17 AM 41.0353 -72.3714 251° West 358 412 17,000 -1,800 Descending Boston Center
Mon 06:30:17 AM 41.0083 -72.4869 253° West 345 397 15,200 -1,750 Descending Boston Center
Mon 06:31:17 AM 40.9811 -72.6022 253° West 340 391 13,500 -1,550 Descending Boston Center
Mon 06:32:17 AM 40.9539 -72.7067 251° West 340 391 12,100 -938 Descending Boston Center
Mon 06:32:53 AM 40.9333 -72.7833 250° West 278 320 12,000 -67 Descending New York TRACON
Mon 06:33:47 AM 40.9000 -72.8333 229° Southwest 268 308 12,000 -167 Level New York TRACON
Mon 06:34:41 AM 40.8500 -72.9000 225° Southwest 269 310 11,700 -947 Descending New York TRACON
Mon 06:35:41 AM 40.7833 -72.9667 217° Southwest 267 307 10,200 -1,550 Descending New York TRACON
Mon 06:36:41 AM 40.7500 -73.0333 237° Southwest 260 299 8,600 -1,556 Descending New York TRACON
Mon 06:37:29 AM 40.7333 -73.1000 252° West 255 293 7,400 -1,556 Descending New York TRACON
Mon 06:38:29 AM 40.7167 -73.2000 258° West 251 289 5,800 -1,143 Descending New York TRACON
Mon 06:39:35 AM 40.7167 -73.3000 270° West 245 282 5,000 -400 Descending New York TRACON
Mon 06:40:29 AM 40.7167 -73.3833 270° West 249 287 5,000  Level New York TRACON
Mon 06:41:23 AM 40.7167 -73.4500 270° West 234 269 5,000 -526 Level New York TRACON
Mon 06:42:23 AM 40.7333 -73.5333 285° West 212 244 4,000 -1,300 Descending New York TRACON
Mon 06:43:23 AM 40.7500 -73.6000 288° West 209 241 2,400 -1,100 Descending New York TRACON
Mon 06:44:23 AM 40.7500 -73.6667 270° West 185 213 1,800 -526 Descending New York TRACON
Mon 06:45:17 AM 40.7000 -73.7000 207° Southwest 173 199 1,400 -579 Descending New York TRACON
Mon 06:46:17 AM 40.6667 -73.7333 217° Southwest 138 159 700 -700 Descending New York TRACON
Mon 06:48:00 AM 40.6333 -73.7667 252° West  Level FlightAware Approximate
Mon 06:55:00 AM 40.6398 -73.7789 252° West  Level Estimated

Login

Don't have an account? Register now (free) for customized features, flight alerts, and more!